Airfield :
LOGIN :

Register | Disclaimer

   EN    FR    IT 

 










Legend :    VFR   Marginal VFR   IFR   Intensive IFR   Very Intensive IFR
Visi :
Ceiling :
>= 8 km
>= 3000ft
5 to 8 km
1000 to 3000 ft
1500m to 5 km
500 to 1000 ft
800 to 1500m
200 to 500 ft
< 800m
< 200 ft
Symbols :   Thunderstorms  Fog  Heavy snow  Heavy precipitations  Wind > 20 kt
SIGMETs :     Misc.  Thunderstorms  Icing  Turbulence  Mountain Waves  Volcanic Ashes






- Airport Elevation : 1411 ft
- IATA code : ZHI


LSZG - Grenchen

CURRENT METAR :
  • 070820Z VRB01KT CAVOK 22/17 Q1021 NOSIG

EXPIRED METARs :
  • 070750Z VRB01KT CAVOK 20/16 Q1021 NOSIG
  • 070720Z VRB01KT CAVOK 19/16 Q1021 NOSIG
  • 070650Z 07001KT CAVOK 17/16 Q1021 NOSIG
  • 070620Z 04002KT CAVOK 16/16 Q1021 NOSIG
  • 070550Z 33001KT CAVOK 14/14 Q1021 NOSIG

TAF TAF LSZG
Valid from the 07 at 09:00 until the 07 at 18:00 UTC


070825Z 0709/0718 07003KT CAVOK
ATIS : +41 32 396 96 33



MET'MAP, your aeronautical weather chart ! - Copyright ORBIFLY December 2007 - Disclaimer

ORBIFLY MET'MAP TEAM :

Programming & Development : Alexandra Zaïnal
Concept & original design : Baudouin d'Aumeries
Assistance for programming : Marc-Olivier Méhu
Technical & hardware support : Manuel Goepfert

Contact : metmap@orbifly.com




SOURCES & CREDITS :

   NOAA